Time;durP1;ratioP1;P1;durP2;ratioP2;P2;SDS_P1;SDS_P2;PMS_P1;PMS_P2;Temp;Humidity;BMP_temperature;BMP_pressure;BME280_temperature;BME280_humidity;BME280_pressure;Samples;Min_cycle;Max_cycle;Signal;HPM_P1;HPM_P2
2022/02/11 00:04:39;;;;;;;8.90;3.95;;;;;;;3.46;88.24;101772.53;5090315;28;20048;-67
2022/02/11 00:07:01;;;;;;;11.05;4.10;;;;;;;3.43;88.22;101774.47;5088383;28;20044;-67
2022/02/11 00:09:28;;;;;;;12.43;4.30;;;;;;;3.46;87.78;101776.94;5089226;28;20036;-67
2022/02/11 00:11:56;;;;;;;12.75;4.10;;;;;;;3.47;88.11;101776.00;5074139;28;20048;-67
2022/02/11 00:14:25;;;;;;;10.93;5.18;;;;;;;3.41;87.71;101782.41;5089165;28;20045;-67
2022/02/11 00:16:52;;;;;;;13.73;5.13;;;;;;;3.61;87.93;101775.25;5072558;28;20103;-67
2022/02/11 00:19:18;;;;;;;11.30;5.35;;;;;;;3.59;87.36;101772.72;5059706;28;20064;-67
2022/02/11 00:21:45;;;;;;;12.35;5.82;;;;;;;3.57;86.92;101779.81;5069809;28;20044;-67
2022/02/11 00:24:13;;;;;;;11.45;5.47;;;;;;;3.41;87.22;101776.34;5083901;28;20380;-67
2022/02/11 00:26:45;;;;;;;10.32;4.88;;;;;;;3.36;86.88;101775.72;5072345;28;20126;-66
2022/02/11 00:30:14;;;;;;;11.48;5.10;;;;;;;3.12;87.63;101783.97;5086274;28;20328;-67
2022/02/11 00:32:08;;;;;;;13.25;4.97;;;;;;;3.07;87.75;101785.97;5088233;28;20128;-67
2022/02/11 00:34:44;;;;;;;13.10;5.32;;;;;;;3.01;87.99;101787.13;5088946;28;20044;-67
2022/02/11 00:37:17;;;;;;;13.13;4.97;;;;;;;2.97;88.60;101795.25;5089709;28;20044;-67
2022/02/11 00:44:09;;;;;;;13.23;5.00;;;;;;;3.07;87.51;101791.22;5089599;28;20044;-67
2022/02/11 01:04:37;;;;;;;14.57;6.00;;;;;;;2.67;88.98;101794.13;5108271;28;20043;-67
2022/02/11 01:07:04;;;;;;;11.48;5.20;;;;;;;2.73;88.74;101787.72;5108926;28;20047;-68
2022/02/11 01:09:32;;;;;;;16.48;5.85;;;;;;;2.82;88.62;101791.63;5092608;28;20164;-67
2022/02/11 01:12:03;;;;;;;15.38;6.00;;;;;;;2.68;89.32;101785.31;5109595;28;20044;-67
2022/02/11 01:14:34;;;;;;;11.52;4.80;;;;;;;2.64;88.68;101788.19;5110552;28;20051;-67
2022/02/11 01:28:20;;;;;;;15.75;7.70;;;;;;;2.73;89.36;101779.84;5110242;28;20495;-67
2022/02/11 01:34:05;;;;;;;14.35;7.07;;;;;;;2.79;88.98;101779.53;5108684;28;20097;-68
2022/02/11 01:36:37;;;;;;;21.67;6.60;;;;;;;2.76;88.58;101784.09;5125861;28;20039;-67
2022/02/11 01:43:08;;;;;;;18.45;9.00;;;;;;;2.84;88.96;101753.09;5110107;28;20047;-67
2022/02/11 01:45:01;;;;;;;20.08;8.52;;;;;;;2.83;88.48;101760.09;5109012;28;20060;-67
2022/02/11 01:50:42;;;;;;;14.65;7.20;;;;;;;2.82;88.01;101779.38;5089607;28;20059;-67
2022/02/11 01:54:01;;;;;;;17.02;8.77;;;;;;;2.75;88.17;101775.38;5093717;28;20403;-67
2022/02/11 01:56:09;;;;;;;19.50;9.40;;;;;;;2.56;89.73;101770.22;5109596;28;20069;-67
2022/02/11 02:15:58;;;;;;;17.95;8.05;;;;;;;2.60;88.78;101773.53;5094802;28;20036;-67
2022/02/11 02:23:58;;;;;;;18.92;8.07;;;;;;;2.29;90.32;101764.56;5093333;28;20580;-67
2022/02/11 02:27:14;;;;;;;20.13;9.55;;;;;;;2.38;89.53;101764.13;5095245;28;20036;-67
2022/02/11 02:50:11;;;;;;;20.88;9.00;;;;;;;2.42;89.80;101772.66;5115686;27;20082;-67
2022/02/11 03:49:35;;;;;;;24.20;12.25;;;;;;;2.48;88.85;101782.84;5021613;28;20041;-68
2022/02/11 03:58:18;;;;;;;30.17;11.40;;;;;;;2.49;88.24;101793.25;5031856;28;20033;-68
2022/02/11 04:08:27;;;;;;;25.35;11.30;;;;;;;2.40;87.91;101809.44;5049837;28;20041;-68
2022/02/11 04:56:08;;;;;;;25.85;9.07;;;;;;;2.72;89.90;101848.91;5131350;27;20382;-67
2022/02/11 05:01:23;;;;;;;27.45;8.23;;;;;;;2.75;90.11;101856.63;5121525;27;20050;-68
2022/02/11 05:03:49;;;;;;;25.45;8.52;;;;;;;2.68;90.51;101855.22;5097554;28;20039;-67
2022/02/11 05:06:16;;;;;;;31.70;9.38;;;;;;;2.79;89.85;101858.16;5112005;28;20126;-67
2022/02/11 05:08:44;;;;;;;35.63;8.50;;;;;;;2.86;89.62;101858.72;5127501;28;20051;-67
2022/02/11 05:11:11;;;;;;;28.25;8.68;;;;;;;2.94;89.84;101866.19;5112227;28;20402;-67
2022/02/11 05:13:38;;;;;;;29.80;8.07;;;;;;;2.90;89.11;101857.63;5112941;28;20445;-67
2022/02/11 05:16:05;;;;;;;29.83;8.88;;;;;;;2.89;89.53;101866.41;5129110;28;20040;-67
2022/02/11 05:18:32;;;;;;;21.20;7.75;;;;;;;2.87;88.98;101861.25;5109275;28;20043;-67
2022/02/11 05:20:59;;;;;;;25.67;9.75;;;;;;;2.87;88.92;101861.25;5125802;28;20130;-67
2022/02/11 05:23:25;;;;;;;26.05;9.68;;;;;;;2.86;89.50;101854.31;5113062;28;20047;-67
2022/02/11 05:25:52;;;;;;;19.55;7.82;;;;;;;2.80;88.92;101865.09;5111866;28;20062;-67
2022/02/11 05:28:19;;;;;;;26.17;9.02;;;;;;;2.81;88.80;101882.50;5129703;28;20052;-67
2022/02/11 05:30:46;;;;;;;27.30;9.25;;;;;;;2.90;88.62;101873.34;5095045;28;20102;-67
2022/02/11 05:33:13;;;;;;;25.02;7.85;;;;;;;2.95;88.61;101884.47;5129284;28;20440;-67
2022/02/11 05:35:40;;;;;;;27.27;8.15;;;;;;;3.03;88.21;101881.44;5095424;28;20126;-68
2022/02/11 05:38:09;;;;;;;28.45;9.95;;;;;;;2.95;88.57;101889.69;5127295;28;20097;-67
2022/02/11 05:40:35;;;;;;;24.95;7.97;;;;;;;3.07;88.66;101893.47;5130617;27;20482;-67
2022/02/11 05:43:02;;;;;;;25.58;7.97;;;;;;;3.08;88.25;101893.38;5129479;28;20089;-69
2022/02/11 05:45:30;;;;;;;24.77;7.97;;;;;;;3.05;88.23;101892.69;5129029;28;20059;-68
2022/02/11 05:47:56;;;;;;;20.52;7.53;;;;;;;3.00;88.40;101895.56;5109089;28;20448;-68
2022/02/11 05:50:23;;;;;;;21.90;7.25;;;;;;;3.12;88.39;101915.06;5110383;28;20055;-67
2022/02/11 05:52:53;;;;;;;26.65;7.82;;;;;;;3.13;88.40;101918.53;5129136;28;20043;-68
2022/02/11 05:55:19;;;;;;;26.77;8.05;;;;;;;3.16;88.14;101927.09;5128632;28;20461;-68
2022/02/11 05:57:46;;;;;;;23.58;7.15;;;;;;;3.19;88.04;101929.56;5130158;27;20035;-68
2022/02/11 06:00:13;;;;;;;18.98;6.25;;;;;;;3.10;88.35;101916.91;5130114;27;20047;-68
2022/02/11 06:02:41;;;;;;;22.73;7.30;;;;;;;3.21;87.51;101917.22;5112052;28;20058;-68
2022/02/11 06:05:08;;;;;;;26.67;8.23;;;;;;;3.19;87.83;101933.97;5122189;27;20039;-69
2022/02/11 06:07:35;;;;;;;27.52;7.70;;;;;;;3.18;88.16;101932.25;5112447;28;20384;-68
2022/02/11 06:10:03;;;;;;;20.30;6.20;;;;;;;3.22;88.08;101933.78;5097945;28;20052;-68
2022/02/11 06:12:30;;;;;;;23.13;6.72;;;;;;;3.30;88.29;101947.38;5081697;28;20050;-68
2022/02/11 06:14:56;;;;;;;29.25;7.32;;;;;;;3.30;88.04;101947.38;5116120;28;20044;-68
2022/02/11 06:17:23;;;;;;;20.73;6.80;;;;;;;3.35;87.58;101953.25;5081414;28;20038;-68
2022/02/11 06:19:50;;;;;;;30.23;7.00;;;;;;;3.34;87.71;101951.53;5114464;28;20139;-68
2022/02/11 06:22:18;;;;;;;23.30;6.70;;;;;;;3.42;87.74;101965.13;5115780;28;20063;-68
2022/02/11 06:24:45;;;;;;;27.23;7.47;;;;;;;3.38;88.12;101953.06;5115438;28;20044;-69
2022/02/11 06:27:12;;;;;;;21.60;5.85;;;;;;;3.48;87.35;101969.22;5116056;28;20487;-67
2022/02/11 06:29:38;;;;;;;21.15;6.40;;;;;;;3.50;87.16;101966.53;5114439;28;20046;-68
2022/02/11 06:32:05;;;;;;;38.58;7.07;;;;;;;3.54;86.90;101981.16;5114563;28;20039;-68
2022/02/11 06:34:32;;;;;;;32.55;7.15;;;;;;;3.63;87.01;101978.06;5112470;28;20050;-68
2022/02/11 06:36:59;;;;;;;25.85;7.22;;;;;;;3.68;86.83;101983.94;5114736;28;20055;-68
2022/02/11 06:39:26;;;;;;;19.77;5.72;;;;;;;3.67;86.37;101997.97;5114659;28;20051;-68
2022/02/11 06:41:53;;;;;;;18.70;5.05;;;;;;;3.69;85.88;101998.75;5114226;28;20685;-68
2022/02/11 06:44:20;;;;;;;17.90;6.07;;;;;;;3.71;86.53;102004.78;5080455;28;20126;-68
2022/02/11 06:46:48;;;;;;;16.40;5.13;;;;;;;3.67;86.08;102005.84;5115287;28;20071;-68
2022/02/11 06:49:15;;;;;;;17.65;6.00;;;;;;;3.67;86.52;102013.72;5115158;28;20047;-68
2022/02/11 06:51:41;;;;;;;23.55;5.50;;;;;;;3.71;85.71;102015.28;5114288;28;20044;-67
2022/02/11 06:54:08;;;;;;;28.08;5.70;;;;;;;3.75;85.69;102024.69;5115114;28;20060;-68
2022/02/11 06:56:35;;;;;;;26.20;6.45;;;;;;;3.78;86.06;102023.69;5115306;28;20066;-68
2022/02/11 06:59:02;;;;;;;23.77;6.72;;;;;;;3.82;85.68;102027.84;5115666;28;20130;-68
2022/02/11 07:01:29;;;;;;;22.45;5.68;;;;;;;3.75;85.88;102024.69;5115444;28;20043;-68
2022/02/11 07:03:56;;;;;;;27.73;6.78;;;;;;;3.87;86.03;102032.88;5115044;28;20061;-68
2022/02/11 07:06:23;;;;;;;31.98;6.90;;;;;;;3.93;85.64;102050.91;5095860;28;20141;-68
2022/02/11 07:08:50;;;;;;;22.40;7.68;;;;;;;4.05;85.35;102055.53;5093684;28;20524;-68
2022/02/11 07:11:17;;;;;;;29.33;9.48;;;;;;;3.99;85.03;102053.25;5094641;28;20564;-68
2022/02/11 07:13:43;;;;;;;23.20;8.70;;;;;;;3.95;84.96;102075.34;5093685;28;20506;-68
2022/02/11 07:16:10;;;;;;;34.28;10.80;;;;;;;3.95;85.82;102078.81;5090491;28;20060;-68
2022/02/11 07:18:37;;;;;;;34.95;13.40;;;;;;;4.03;84.84;102081.88;5113585;28;20046;-68
2022/02/11 07:21:03;;;;;;;33.05;14.68;;;;;;;3.96;85.92;102103.28;5113514;28;20441;-68
2022/02/11 07:23:30;;;;;;;28.48;13.02;;;;;;;4.10;85.26;102095.56;5096773;28;20051;-68
2022/02/11 07:25:57;;;;;;;38.15;14.00;;;;;;;4.06;85.22;102095.78;5114474;28;20031;-68
2022/02/11 07:28:24;;;;;;;33.60;11.68;;;;;;;4.03;85.27;102102.03;5114692;28;20564;-68
2022/02/11 07:30:51;;;;;;;36.20;13.10;;;;;;;4.07;85.04;102113.25;5093345;28;20051;-68
2022/02/11 07:33:18;;;;;;;32.35;12.52;;;;;;;4.03;85.73;102117.81;5091105;28;20071;-68
2022/02/11 07:35:45;;;;;;;35.10;11.30;;;;;;;4.07;84.90;102115.88;5059402;28;20093;-68
2022/02/11 07:38:12;;;;;;;27.20;8.65;;;;;;;4.11;84.38;102122.66;5092983;28;20539;-68
2022/02/11 07:40:39;;;;;;;29.42;7.43;;;;;;;4.09;84.77;102129.75;5092741;28;20392;-68
2022/02/11 07:43:06;;;;;;;21.98;5.68;;;;;;;4.25;83.78;102140.34;5076189;28;20044;-68
2022/02/11 07:45:43;;;;;;;24.30;6.15;;;;;;;4.30;83.59;102133.09;5108132;28;20544;-68
2022/02/11 07:48:10;;;;;;;22.13;5.13;;;;;;;4.25;84.17;102141.19;5075612;28;20503;-68
2022/02/11 07:50:38;;;;;;;31.33;6.05;;;;;;;4.31;82.83;102147.91;5092517;28;20040;-68
2022/02/11 07:53:04;;;;;;;26.83;5.35;;;;;;;4.20;84.39;102151.06;5103108;28;20116;-68
2022/02/11 07:55:31;;;;;;;21.90;5.05;;;;;;;4.17;83.21;102164.38;5079021;28;20052;-68
2022/02/11 07:57:58;;;;;;;27.60;3.78;;;;;;;4.07;83.07;102163.97;5114016;28;20050;-68
2022/02/11 08:00:26;;;;;;;26.40;4.00;;;;;;;4.03;84.07;102172.94;5113727;28;20667;-68
2022/02/11 08:02:53;;;;;;;25.38;3.78;;;;;;;4.35;82.85;102187.09;5112760;28;20040;-68
2022/02/11 08:05:20;;;;;;;21.50;3.33;;;;;;;4.34;82.04;102192.41;5112778;28;20042;-68
2022/02/11 08:07:47;;;;;;;18.70;3.67;;;;;;;4.33;81.91;102194.22;5104509;28;20047;-68
2022/02/11 08:10:14;;;;;;;23.98;4.20;;;;;;;4.29;82.49;102197.06;5095887;28;20036;-68
2022/02/11 08:12:41;;;;;;;21.80;3.47;;;;;;;4.33;82.34;102206.47;5113976;28;20047;-68
2022/02/11 08:15:08;;;;;;;26.17;4.05;;;;;;;4.32;82.24;102203.00;5094083;28;20039;-68
2022/02/11 08:17:36;;;;;;;33.33;4.80;;;;;;;4.23;82.98;102209.56;5093216;28;20036;-68
2022/02/11 08:20:03;;;;;;;23.88;3.33;;;;;;;4.52;82.77;102214.28;5112585;28;20047;-68
2022/02/11 08:22:30;;;;;;;18.77;3.53;;;;;;;4.65;81.09;102217.97;5112360;28;20133;-68
2022/02/11 08:24:58;;;;;;;26.35;3.50;;;;;;;4.65;81.50;102225.84;5095876;28;20068;-68
2022/02/11 08:27:24;;;;;;;17.55;3.22;;;;;;;4.62;80.57;102241.81;5095660;28;20040;-68
2022/02/11 08:29:51;;;;;;;23.65;3.50;;;;;;;4.61;81.18;102240.94;5109037;28;20479;-68
2022/02/11 08:32:19;;;;;;;20.00;3.63;;;;;;;4.79;81.23;102249.66;5072329;28;20507;-66
2022/02/11 08:34:46;;;;;;;23.25;3.42;;;;;;;5.11;79.04;102249.75;5108003;28;20055;-67
2022/02/11 08:37:13;;;;;;;28.35;4.55;;;;;;;4.86;78.83;102251.94;5088942;28;20040;-69
2022/02/11 08:39:39;;;;;;;20.23;3.17;;;;;;;4.86;78.45;102258.09;5092624;28;20048;-68
2022/02/11 08:42:07;;;;;;;27.25;3.35;;;;;;;4.82;78.62;102272.34;5105866;28;21035;-68
2022/02/11 08:44:34;;;;;;;23.38;3.08;;;;;;;4.85;78.33;102271.31;5109066;28;20075;-68
2022/02/11 08:47:01;;;;;;;27.63;3.47;;;;;;;4.83;77.17;102281.91;5107189;28;20044;-68
2022/02/11 08:49:29;;;;;;;28.83;3.80;;;;;;;4.78;77.86;102291.78;5109910;28;20043;-69
2022/02/11 08:51:56;;;;;;;20.30;3.70;;;;;;;4.87;77.29;102298.38;5108060;28;20054;-68
2022/02/11 08:54:23;;;;;;;25.50;3.13;;;;;;;4.98;77.28;102312.69;5112262;28;20095;-68
2022/02/11 08:56:50;;;;;;;18.88;3.03;;;;;;;5.15;77.64;102318.84;5111617;28;20032;-68
2022/02/11 08:59:16;;;;;;;27.42;5.10;;;;;;;5.13;77.15;102318.03;5110826;28;20118;-68
2022/02/11 09:01:43;;;;;;;25.17;3.33;;;;;;;5.05;76.99;102326.34;5112248;28;20526;-68
2022/02/11 09:04:10;;;;;;;19.20;3.50;;;;;;;5.32;75.70;102325.84;5092821;28;20051;-68
2022/02/11 09:06:37;;;;;;;25.15;3.47;;;;;;;5.22;76.32;102343.03;5103568;28;20375;-69
2022/02/11 09:09:04;;;;;;;20.25;3.38;;;;;;;5.26;75.71;102337.56;5098565;28;20118;-68
2022/02/11 09:11:32;;;;;;;19.27;3.28;;;;;;;5.19;75.94;102349.31;5109670;28;20427;-67
2022/02/11 09:14:00;;;;;;;24.17;3.72;;;;;;;5.14;75.70;102346.06;5090890;28;20043;-68
2022/02/11 09:16:27;;;;;;;21.25;3.95;;;;;;;5.14;74.39;102346.91;5085058;28;20226;-67
2022/02/11 09:18:54;;;;;;;21.30;3.58;;;;;;;5.18;74.83;102364.25;5108598;28;20050;-68
2022/02/11 09:21:20;;;;;;;27.17;3.55;;;;;;;5.29;74.73;102360.22;5097166;28;20048;-67
2022/02/11 09:23:47;;;;;;;20.63;3.35;;;;;;;5.28;74.03;102369.06;5110523;28;20055;-67
2022/02/11 09:26:16;;;;;;;21.60;3.60;;;;;;;5.37;73.65;102368.56;5109315;28;20031;-67
2022/02/11 09:28:43;;;;;;;20.98;3.15;;;;;;;5.35;72.25;102363.38;5109266;28;20043;-67
2022/02/11 09:31:11;;;;;;;24.58;3.47;;;;;;;5.30;73.18;102369.81;5106991;28;20131;-67
2022/02/11 09:33:38;;;;;;;27.60;3.75;;;;;;;5.50;72.61;102379.31;5104976;28;20054;-67
2022/02/11 09:36:06;;;;;;;20.90;3.92;;;;;;;5.36;74.45;102378.22;5091206;28;20491;-66
2022/02/11 09:38:33;;;;;;;19.27;3.28;;;;;;;5.44;73.21;102384.88;5091653;28;20055;-68
2022/02/11 09:41:00;;;;;;;25.60;3.95;;;;;;;5.46;71.09;102388.28;5101650;28;20047;-68
2022/02/11 09:43:27;;;;;;;24.15;3.50;;;;;;;5.46;72.45;102373.34;5066384;27;20046;-68
2022/02/11 09:45:56;;;;;;;23.67;3.40;;;;;;;5.43;71.04;102386.66;5091012;28;20491;-68
2022/02/11 09:48:24;;;;;;;27.52;4.15;;;;;;;5.53;70.03;102394.91;5097484;28;20036;-68
2022/02/11 09:50:53;;;;;;;24.63;3.33;;;;;;;5.77;70.61;102401.53;5114943;28;20040;-68
2022/02/11 09:53:20;;;;;;;25.83;3.67;;;;;;;5.49;70.47;102399.47;5101927;28;20075;-68
2022/02/11 09:55:47;;;;;;;22.58;3.40;;;;;;;5.68;70.47;102402.00;5109106;28;20039;-68
2022/02/11 09:58:18;;;;;;;22.30;3.33;;;;;;;5.70;69.39;102412.47;5094049;28;20399;-68
2022/02/11 10:00:48;;;;;;;21.67;3.45;;;;;;;5.74;68.81;102420.09;5113647;28;20486;-68
2022/02/11 10:03:17;;;;;;;35.42;4.30;;;;;;;5.96;68.90;102419.00;5115188;28;20070;-69
2022/02/11 10:05:55;;;;;;;20.80;3.10;;;;;;;6.12;66.95;102425.13;5106350;28;20115;-68
2022/02/11 10:08:25;;;;;;;23.77;3.55;;;;;;;6.02;67.87;102426.59;5101552;28;20050;-68
2022/02/11 10:10:54;;;;;;;24.70;3.92;;;;;;;6.28;68.33;102442.75;5101209;28;20085;-68
2022/02/11 10:13:25;;;;;;;23.45;3.70;;;;;;;6.25;68.04;102437.63;5109182;28;20383;-68
2022/02/11 10:15:56;;;;;;;28.73;4.28;;;;;;;6.26;69.02;102447.25;5111745;28;20044;-68
2022/02/11 10:18:28;;;;;;;29.75;4.43;;;;;;;6.53;67.72;102456.28;5112242;28;20379;-68
2022/02/11 10:20:57;;;;;;;36.42;4.43;;;;;;;6.51;66.34;102462.56;5110303;28;20036;-68
2022/02/11 10:23:31;;;;;;;30.17;4.47;;;;;;;6.19;67.43;102461.72;5109539;28;20040;-68
2022/02/11 10:26:09;;;;;;;28.58;3.80;;;;;;;6.33;66.53;102459.13;5104908;28;20032;-68
2022/02/11 10:28:55;;;;;;;20.27;3.28;;;;;;;6.33;65.89;102475.81;5105680;28;20413;-68
2022/02/11 10:31:31;;;;;;;27.27;3.90;;;;;;;6.34;66.21;102485.41;5111097;28;20941;-68
2022/02/11 10:34:11;;;;;;;35.70;3.92;;;;;;;6.61;64.94;102479.56;5087845;28;20475;-69
2022/02/11 10:36:48;;;;;;;23.70;3.42;;;;;;;6.34;63.24;102480.16;5072963;28;20452;-68
2022/02/11 10:39:26;;;;;;;21.10;3.75;;;;;;;6.42;64.16;102484.16;5111435;28;20059;-68
2022/02/11 10:41:55;;;;;;;31.30;4.32;;;;;;;6.13;63.58;102503.25;5107532;28;20142;-68
2022/02/11 10:44:29;;;;;;;29.10;3.75;;;;;;;6.01;64.58;102496.00;5112525;28;20441;-68
2022/02/11 10:47:00;;;;;;;23.17;3.88;;;;;;;6.23;64.63;102502.75;5113354;28;20105;-68
2022/02/11 10:54:50;;;;;;;24.98;3.60;;;;;;;6.51;62.70;102521.44;5129451;27;20362;-67
2022/02/11 10:57:20;;;;;;;33.10;3.58;;;;;;;6.43;61.68;102510.44;5102694;28;20127;-68
2022/02/11 10:59:48;;;;;;;23.90;3.50;;;;;;;6.56;64.22;102517.69;5110552;27;20051;-68
2022/02/11 11:02:17;;;;;;;23.17;3.17;;;;;;;6.61;62.82;102523.56;5103916;28;20098;-67
2022/02/11 11:04:46;;;;;;;30.30;4.30;;;;;;;6.81;63.14;102528.56;5093260;28;20048;-68
2022/02/11 11:07:18;;;;;;;26.30;3.33;;;;;;;6.90;60.84;102530.69;5092976;28;20047;-68
2022/02/11 11:09:47;;;;;;;28.52;3.75;;;;;;;6.76;60.63;102525.34;5108075;28;20044;-67
2022/02/11 11:12:18;;;;;;;28.83;3.67;;;;;;;7.03;59.68;102532.63;5109141;28;20051;-68
2022/02/11 11:14:48;;;;;;;22.63;2.97;;;;;;;7.82;58.03;102542.97;5110646;28;20040;-67
2022/02/11 11:17:17;;;;;;;23.50;3.95;;;;;;;9.05;52.01;102531.81;5111039;28;20127;-68
2022/02/11 11:19:44;;;;;;;27.88;3.88;;;;;;;9.54;50.93;102539.16;5110826;28;20092;-68
2022/02/11 11:22:11;;;;;;;20.42;3.38;;;;;;;10.23;49.42;102535.38;5111401;28;20126;-68
2022/02/11 11:24:44;;;;;;;24.65;3.63;;;;;;;10.83;46.03;102544.38;5084401;28;20419;-68
2022/02/11 11:27:11;;;;;;;21.40;3.70;;;;;;;11.15;44.10;102547.31;5083340;28;20135;-68
2022/02/11 11:29:39;;;;;;;25.85;2.92;;;;;;;10.99;45.43;102550.28;5104144;28;20043;-68
2022/02/11 11:32:05;;;;;;;24.92;3.22;;;;;;;10.05;46.05;102558.72;5106455;28;20044;-67
2022/02/11 11:34:34;;;;;;;15.88;2.78;;;;;;;8.81;49.15;102553.63;5111684;28;20043;-68
2022/02/11 11:37:07;;;;;;;26.05;3.45;;;;;;;9.48;48.87;102566.06;5108068;27;20063;-68
2022/02/11 11:39:35;;;;;;;21.50;3.22;;;;;;;11.08;44.96;102562.03;5101651;28;20475;-68
2022/02/11 11:44:50;;;;;;;22.67;3.40;;;;;;;12.58;40.64;102565.59;5102105;28;20124;-68
2022/02/11 11:47:35;;;;;;;26.73;4.20;;;;;;;13.10;39.52;102563.22;5060810;28;20072;-68
2022/02/11 11:50:06;;;;;;;20.27;3.90;;;;;;;14.34;36.45;102565.16;5064699;28;20056;-67
2022/02/11 11:52:50;;;;;;;17.58;3.10;;;;;;;15.82;33.71;102575.91;5065003;28;20041;-68
2022/02/11 11:55:20;;;;;;;22.25;3.42;;;;;;;15.04;34.27;102572.41;5043547;28;20036;-68
2022/02/11 11:57:48;;;;;;;25.98;4.00;;;;;;;14.55;34.80;102572.25;5085038;28;20071;-68
2022/02/11 12:00:36;;;;;;;23.17;3.35;;;;;;;14.88;33.45;102587.16;5073832;28;20079;-69
2022/02/11 12:03:07;;;;;;;23.40;2.75;;;;;;;15.09;33.99;102586.19;5053971;28;20109;-68
2022/02/11 12:05:53;;;;;;;17.90;3.40;;;;;;;14.87;32.61;102581.94;5047688;28;20098;-68
2022/02/11 12:08:21;;;;;;;19.23;3.00;;;;;;;15.83;31.92;102577.63;5075381;28;20499;-69
2022/02/11 12:10:49;;;;;;;16.80;2.80;;;;;;;16.38;30.71;102571.50;5063217;28;20064;-68
2022/02/11 12:13:18;;;;;;;20.65;3.45;;;;;;;15.73;31.81;102590.13;5048870;28;20037;-68
2022/02/11 12:15:44;;;;;;;18.98;3.13;;;;;;;17.06;30.21;102589.06;5063024;28;20094;-68
2022/02/11 12:18:11;;;;;;;14.00;3.50;;;;;;;16.67;29.20;102586.59;5086417;28;20044;-68
2022/02/11 12:20:38;;;;;;;17.65;3.63;;;;;;;13.77;33.75;102593.22;5049347;28;20127;-68
2022/02/11 12:28:41;;;;;;;19.50;2.95;;;;;;;7.84;45.93;102587.78;5048987;28;20040;-67
2022/02/11 12:31:09;;;;;;;18.92;2.53;;;;;;;7.78;47.04;102607.50;5064688;28;20044;-68
2022/02/11 12:33:37;;;;;;;19.30;3.78;;;;;;;7.36;45.52;102601.13;5058903;28;20138;-68
2022/02/11 12:36:11;;;;;;;18.42;3.00;;;;;;;7.14;46.30;102601.50;5059686;28;20482;-68
2022/02/11 12:38:38;;;;;;;20.23;3.10;;;;;;;7.43;46.44;102602.47;5082294;28;20407;-67
2022/02/11 12:41:05;;;;;;;27.55;3.10;;;;;;;7.23;47.35;102608.88;5040555;28;20050;-67
2022/02/11 12:43:32;;;;;;;20.48;2.60;;;;;;;7.07;46.95;102614.16;5041684;28;20055;-67
2022/02/11 12:46:02;;;;;;;28.38;3.40;;;;;;;7.45;47.19;102616.44;5084204;28;20052;-66
2022/02/11 12:48:32;;;;;;;19.45;3.40;;;;;;;7.09;46.76;102622.88;5079039;28;20055;-68
2022/02/11 12:51:00;;;;;;;21.73;3.05;;;;;;;6.99;47.91;102623.47;5066142;28;20437;-68
2022/02/11 12:53:28;;;;;;;16.75;2.45;;;;;;;6.66;45.45;102630.50;5053172;28;20079;-68
2022/02/11 12:55:56;;;;;;;15.63;2.58;;;;;;;6.68;45.27;102628.63;5068359;28;20049;-68
2022/02/11 12:58:23;;;;;;;18.20;3.00;;;;;;;8.60;41.56;102626.41;5057784;28;20043;-69
2022/02/11 13:00:50;;;;;;;13.45;2.63;;;;;;;10.69;37.26;102630.31;5049143;28;20071;-70
2022/02/11 13:03:19;;;;;;;15.45;2.47;;;;;;;11.93;34.37;102633.66;5065564;28;20400;-69
2022/02/11 13:05:50;;;;;;;14.30;3.05;;;;;;;12.49;32.85;102624.91;5035533;28;20055;-68
2022/02/11 13:08:23;;;;;;;14.65;2.55;;;;;;;12.98;31.78;102628.13;5048299;28;20072;-68
2022/02/11 13:11:04;;;;;;;18.55;2.35;;;;;;;13.29;31.15;102621.16;5036961;28;20094;-69
2022/02/11 13:13:33;;;;;;;17.38;3.00;;;;;;;12.73;31.88;102635.41;5064413;28;20091;-68
2022/02/11 13:16:03;;;;;;;13.38;2.50;;;;;;;13.27;30.69;102635.59;5065046;28;20409;-69
2022/02/11 13:18:34;;;;;;;15.20;2.22;;;;;;;14.10;30.34;102634.00;5071937;28;20127;-69
2022/02/11 13:21:04;;;;;;;25.83;3.28;;;;;;;14.29;29.83;102638.63;5034347;28;21046;-69
2022/02/11 13:23:32;;;;;;;20.05;2.92;;;;;;;14.35;29.78;102641.63;5067799;28;20037;-69
2022/02/11 13:26:00;;;;;;;13.35;2.42;;;;;;;14.72;28.10;102641.09;5060945;28;20036;-69
2022/02/11 13:28:28;;;;;;;16.73;2.90;;;;;;;14.92;27.88;102635.81;5062270;28;20404;-69
2022/02/11 13:30:58;;;;;;;18.52;2.60;;;;;;;13.82;28.50;102639.03;5060862;28;20033;-69
2022/02/11 13:33:30;;;;;;;19.08;2.75;;;;;;;14.09;29.19;102649.19;5068670;28;20472;-69
2022/02/11 13:35:59;;;;;;;19.80;3.50;;;;;;;11.27;31.69;102642.03;5064283;28;20509;-69
2022/02/11 13:41:07;;;;;;;15.57;2.95;;;;;;;11.63;32.51;102650.09;5109451;27;20736;-69
2022/02/11 13:43:57;;;;;;;16.52;2.47;;;;;;;10.82;33.76;102635.59;5103012;28;20789;-69
2022/02/11 13:46:48;;;;;;;22.42;2.55;;;;;;;12.54;31.34;102654.69;5087449;28;20043;-68
2022/02/11 13:49:16;;;;;;;16.42;2.40;;;;;;;13.25;31.87;102649.03;5090124;28;20048;-69
2022/02/11 13:53:01;;;;;;;17.50;2.30;;;;;;;14.27;29.02;102657.44;5098130;28;20098;-69
2022/02/11 13:54:31;;;;;;;19.00;2.60;;;;;;;14.39;29.27;102643.03;5092744;28;20083;-67
2022/02/11 13:57:00;;;;;;;16.75;3.80;;;;;;;13.69;29.79;102652.53;5087587;28;20153;-67
2022/02/11 13:59:30;;;;;;;17.48;2.97;;;;;;;12.75;32.14;102660.13;5089027;28;20040;-68
2022/02/11 14:02:05;;;;;;;14.68;2.80;;;;;;;11.82;32.87;102649.53;5077980;28;20143;-67
2022/02/11 14:04:46;;;;;;;17.95;3.80;;;;;;;10.84;34.27;102649.59;5088472;28;20050;-68
2022/02/11 14:07:13;;;;;;;18.80;2.83;;;;;;;10.14;36.35;102651.72;5071729;28;20123;-68
2022/02/11 14:09:42;;;;;;;12.07;2.55;;;;;;;9.59;37.30;102653.63;5087421;28;20109;-67
2022/02/11 14:12:18;;;;;;;16.65;3.50;;;;;;;9.02;39.92;102664.38;5069653;28;20121;-67
2022/02/11 14:14:54;;;;;;;18.70;3.50;;;;;;;8.52;40.60;102661.28;5094725;28;20044;-67
2022/02/11 14:17:20;;;;;;;15.98;2.92;;;;;;;8.24;41.29;102670.00;5080119;28;20051;-67
2022/02/11 14:19:47;;;;;;;17.73;3.20;;;;;;;7.91;42.11;102675.50;5081870;28;22210;-66
2022/02/11 14:22:14;;;;;;;21.40;3.50;;;;;;;7.66;42.52;102680.41;5095331;28;20119;-67
2022/02/11 14:24:41;;;;;;;15.25;2.42;;;;;;;7.41;42.12;102682.72;5085919;28;20041;-67
2022/02/11 14:27:08;;;;;;;15.18;2.55;;;;;;;7.39;43.03;102689.91;5085687;28;20123;-67
2022/02/11 14:29:34;;;;;;;14.40;2.35;;;;;;;7.25;43.93;102690.66;5069801;28;20370;-69
2022/02/11 14:32:02;;;;;;;15.07;2.05;;;;;;;7.20;41.72;102695.31;5072710;28;20066;-67
2022/02/11 14:34:28;;;;;;;14.68;2.03;;;;;;;7.11;42.92;102691.38;5073283;28;20500;-67
2022/02/11 14:36:55;;;;;;;18.05;2.40;;;;;;;7.01;41.99;102692.84;5089723;28;20036;-67
2022/02/11 14:39:22;;;;;;;17.13;2.40;;;;;;;7.18;42.58;102691.91;5069256;28;20044;-67
2022/02/11 14:41:54;;;;;;;14.73;2.10;;;;;;;7.06;41.70;102689.03;5113010;28;20037;-68
2022/02/11 14:44:25;;;;;;;11.32;2.00;;;;;;;7.10;42.24;102706.38;5097178;28;20040;-68
2022/02/11 14:46:56;;;;;;;16.73;2.88;;;;;;;7.13;41.94;102708.03;5089373;28;20065;-69
2022/02/11 14:49:24;;;;;;;15.55;2.30;;;;;;;7.27;42.45;102713.38;5070868;28;20032;-67
2022/02/11 14:51:53;;;;;;;12.85;2.75;;;;;;;6.95;41.75;102716.91;5077054;28;20044;-68
2022/02/11 14:54:21;;;;;;;10.50;2.20;;;;;;;7.14;42.31;102716.78;5071798;28;20106;-68
2022/02/11 14:56:50;;;;;;;19.60;2.30;;;;;;;6.94;41.79;102720.50;5073411;28;20032;-66
2022/02/11 14:59:18;;;;;;;15.10;2.75;;;;;;;6.91;42.22;102727.66;5038206;28;20628;-67
2022/02/11 15:01:47;;;;;;;14.48;3.03;;;;;;;6.87;41.65;102726.09;5076343;28;20075;-68
2022/02/11 15:04:15;;;;;;;15.85;2.55;;;;;;;6.75;41.61;102728.50;5057608;28;20985;-68
2022/02/11 15:06:46;;;;;;;12.10;2.53;;;;;;;6.83;41.31;102731.63;5073413;28;20036;-68
2022/02/11 15:09:13;;;;;;;11.05;1.75;;;;;;;6.92;42.79;102734.63;5086141;28;20041;-68
2022/02/11 15:11:41;;;;;;;8.77;2.13;;;;;;;6.90;42.46;102731.22;5074821;28;20035;-68
2022/02/11 15:14:10;;;;;;;9.98;2.20;;;;;;;6.96;41.08;102737.94;5075471;28;20121;-67
2022/02/11 15:16:38;;;;;;;18.77;2.15;;;;;;;6.98;42.29;102740.50;5080389;28;20044;-68
2022/02/11 15:19:06;;;;;;;12.93;2.13;;;;;;;6.88;42.45;102743.63;5077626;28;20048;-68